createdAt,value
2019-05-23T00:02:42.013Z,7.57
2019-05-23T00:08:11.425Z,7.50
2019-05-23T00:13:35.418Z,7.45
2019-05-23T00:18:42.618Z,7.43
2019-05-23T00:23:48.085Z,7.37
2019-05-23T00:29:09.121Z,7.34
2019-05-23T00:34:02.808Z,7.31
2019-05-23T00:39:09.264Z,7.26
2019-05-23T00:44:15.934Z,7.24
2019-05-23T00:49:22.267Z,7.14
2019-05-23T00:54:27.732Z,7.11
2019-05-23T00:59:33.948Z,7.08
2019-05-23T01:04:40.601Z,7.01
2019-05-23T01:09:46.354Z,6.92
2019-05-23T01:14:51.955Z,6.86
2019-05-23T01:19:58.874Z,6.83
2019-05-23T01:25:05.094Z,6.67
2019-05-23T01:30:13.334Z,6.59
2019-05-23T01:35:20.887Z,6.45
2019-05-23T01:40:26.077Z,6.40
2019-05-23T01:45:33.403Z,6.43
2019-05-23T01:50:39.342Z,6.38
2019-05-23T01:55:44.662Z,6.38
2019-05-23T02:00:50.155Z,6.35
2019-05-23T02:05:55.716Z,6.34
2019-05-23T02:11:01.920Z,6.29
2019-05-23T02:16:08.290Z,6.29
2019-05-23T02:21:16.346Z,6.29
2019-05-23T02:26:23.684Z,6.26
2019-05-23T02:31:28.864Z,6.24
2019-05-23T02:36:34.559Z,6.22
2019-05-23T02:41:54.480Z,6.16
2019-05-23T02:47:18.422Z,6.11
2019-05-23T02:52:41.545Z,6.06
2019-05-23T02:57:48.139Z,6.00
2019-05-23T03:02:58.617Z,5.94
2019-05-23T03:08:08.024Z,5.89
2019-05-23T03:13:13.870Z,5.81
2019-05-23T03:18:21.930Z,5.78
2019-05-23T03:23:28.607Z,5.71
2019-05-23T03:28:42.759Z,5.68
2019-05-23T03:33:48.480Z,5.69
2019-05-23T03:38:55.707Z,5.65
2019-05-23T03:44:01.595Z,5.65
2019-05-23T03:49:08.897Z,5.66
2019-05-23T03:54:15.180Z,5.67
2019-05-23T03:59:22.379Z,5.69
2019-05-23T04:04:27.903Z,5.70
2019-05-23T04:09:34.393Z,5.70
2019-05-23T04:14:39.824Z,5.74
2019-05-23T04:19:44.999Z,5.77
2019-05-23T04:24:50.373Z,5.83
2019-05-23T04:29:56.063Z,5.91
2019-05-23T04:35:01.146Z,5.98
2019-05-23T04:40:09.048Z,6.08
2019-05-23T04:45:15.565Z,6.17
2019-05-23T04:50:21.338Z,6.27
2019-05-23T04:55:27.124Z,6.40
2019-05-23T05:00:33.111Z,6.53
2019-05-23T05:05:38.691Z,6.66
2019-05-23T05:10:45.238Z,6.75
2019-05-23T05:15:50.883Z,6.91
2019-05-23T05:20:57.042Z,7.01
2019-05-23T05:26:03.736Z,7.12
2019-05-23T05:31:09.181Z,7.28
2019-05-23T05:36:14.626Z,7.44
2019-05-23T05:41:20.650Z,7.57
2019-05-23T05:46:25.948Z,7.76
2019-05-23T05:51:31.219Z,7.92
2019-05-23T05:56:36.457Z,8.11
2019-05-23T06:01:41.777Z,8.22
2019-05-23T06:07:06.036Z,8.36
2019-05-23T06:12:12.748Z,8.44
2019-05-23T06:17:19.738Z,8.65
2019-05-23T06:22:25.964Z,8.77
2019-05-23T06:27:31.391Z,8.93
2019-05-23T06:32:38.415Z,9.07
2019-05-23T06:37:43.736Z,9.19
2019-05-23T06:42:50.859Z,9.36
2019-05-23T06:47:56.089Z,9.49
2019-05-23T06:53:02.236Z,9.74
2019-05-23T06:58:08.483Z,9.94
2019-05-23T07:03:14.637Z,10.09
2019-05-23T07:08:25.305Z,10.29
2019-05-23T07:13:31.726Z,10.45
2019-05-23T07:18:37.946Z,10.71
2019-05-23T07:23:43.096Z,10.87
2019-05-23T07:28:48.900Z,11.09
2019-05-23T07:34:01.876Z,11.31
2019-05-23T07:39:01.549Z,11.41
2019-05-23T07:44:08.315Z,11.63
2019-05-23T07:49:13.408Z,11.82
2019-05-23T07:54:23.796Z,12.04
2019-05-23T07:59:29.144Z,12.33
2019-05-23T08:04:35.158Z,12.53
2019-05-23T08:09:41.253Z,12.76
2019-05-23T08:14:46.851Z,13.04
2019-05-23T08:19:52.025Z,13.26
2019-05-23T08:24:57.754Z,13.51
2019-05-23T08:30:03.763Z,13.68
2019-05-23T08:35:09.622Z,13.74
2019-05-23T08:40:17.021Z,13.87
2019-05-23T08:45:22.654Z,14.02
2019-05-23T08:50:28.062Z,14.25
2019-05-23T08:55:34.502Z,14.47
2019-05-23T09:00:40.717Z,14.69
2019-05-23T09:05:47.588Z,14.56
2019-05-23T09:10:52.920Z,14.68
2019-05-23T09:15:58.231Z,14.75
2019-05-23T09:21:05.088Z,14.60
2019-05-23T09:26:10.166Z,14.75
2019-05-23T09:31:15.905Z,14.90
2019-05-23T09:36:21.208Z,15.08
2019-05-23T09:41:26.368Z,15.24
2019-05-23T09:46:31.787Z,15.55
2019-05-23T09:51:37.016Z,15.62
2019-05-23T09:56:42.432Z,15.64
2019-05-23T10:01:48.489Z,15.76
2019-05-23T10:06:54.204Z,15.98
2019-05-23T10:11:59.945Z,16.03
2019-05-23T10:17:05.465Z,15.98
2019-05-23T10:22:11.273Z,16.09
2019-05-23T10:27:16.410Z,16.07
2019-05-23T10:32:21.634Z,16.13
2019-05-23T10:37:28.531Z,16.21
2019-05-23T10:42:34.444Z,15.93
2019-05-23T10:47:39.923Z,16.11
2019-05-23T10:52:45.535Z,16.26
2019-05-23T10:57:51.112Z,16.52
2019-05-23T11:02:56.553Z,16.31
2019-05-23T11:08:02.821Z,16.32
2019-05-23T11:13:08.398Z,16.26
2019-05-23T11:18:13.735Z,16.21
2019-05-23T11:23:24.891Z,16.31
2019-05-23T11:28:31.723Z,16.44
2019-05-23T11:33:36.936Z,16.58
2019-05-23T11:38:42.045Z,16.77
2019-05-23T11:43:47.431Z,16.82
2019-05-23T11:48:53.653Z,16.74
2019-05-23T11:54:07.954Z,16.91
2019-05-23T11:59:05.975Z,16.96
2019-05-23T12:04:15.093Z,17.08
2019-05-23T12:09:21.810Z,17.04
2019-05-23T12:14:27.041Z,17.36
2019-05-23T12:19:32.896Z,17.62
2019-05-23T12:24:38.345Z,17.52
2019-05-23T12:29:44.384Z,17.53
2019-05-23T12:35:08.549Z,17.74
2019-05-23T12:39:57.378Z,17.80
2019-05-23T12:45:02.917Z,18.04
2019-05-23T12:50:13.148Z,18.09
2019-05-23T12:55:18.594Z,18.51
2019-05-23T13:00:43.151Z,18.64
2019-05-23T13:05:50.823Z,18.96
2019-05-23T13:10:56.081Z,18.76
2019-05-23T13:16:01.410Z,18.71
2019-05-23T13:21:07.230Z,19.24
2019-05-23T13:26:12.745Z,19.51
2019-05-23T13:31:17.956Z,19.63
2019-05-23T13:36:23.558Z,19.17
2019-05-23T13:41:28.712Z,19.52
2019-05-23T13:46:34.103Z,19.80
2019-05-23T13:51:40.089Z,19.81
2019-05-23T13:56:47.755Z,19.97
2019-05-23T14:01:53.294Z,20.39
2019-05-23T14:06:58.539Z,20.96
2019-05-23T14:12:20.729Z,21.18
2019-05-23T14:17:32.934Z,21.64
2019-05-23T14:22:42.091Z,21.61
2019-05-23T14:27:53.582Z,21.27
2019-05-23T14:33:00.697Z,21.40
2019-05-23T14:38:07.708Z,21.20
2019-05-23T14:43:18.076Z,21.66
2019-05-23T14:48:51.392Z,21.74
2019-05-23T14:54:22.136Z,21.60
2019-05-23T14:59:29.523Z,22.35
2019-05-23T15:04:35.085Z,21.12
2019-05-23T15:09:40.499Z,21.09
2019-05-23T15:14:45.565Z,20.75
2019-05-23T15:19:51.367Z,21.07
2019-05-23T15:24:56.534Z,21.55
2019-05-23T15:30:02.634Z,21.46
2019-05-23T15:35:08.146Z,21.11
2019-05-23T15:40:14.072Z,21.35
2019-05-23T15:45:19.540Z,21.19
2019-05-23T15:50:28.354Z,21.64
2019-05-23T15:55:55.817Z,22.25
2019-05-23T16:01:11.079Z,21.46
2019-05-23T16:06:19.313Z,21.49
2019-05-23T16:11:25.856Z,20.85
2019-05-23T16:16:31.432Z,20.68
2019-05-23T16:21:37.411Z,20.41
2019-05-23T16:26:43.130Z,21.28
2019-05-23T16:31:48.266Z,20.88
2019-05-23T16:36:53.610Z,21.45
2019-05-23T16:41:59.495Z,21.03
2019-05-23T16:47:04.912Z,21.45
2019-05-23T16:52:10.002Z,21.15
2019-05-23T16:57:27.573Z,21.19
2019-05-23T17:02:45.977Z,21.05
2019-05-23T17:08:04.261Z,21.03
2019-05-23T17:13:35.541Z,20.60
2019-05-23T17:19:06.888Z,20.50
2019-05-23T17:24:22.798Z,20.99
2019-05-23T17:29:52.858Z,20.63
2019-05-23T17:35:00.196Z,20.42
2019-05-23T17:40:05.899Z,19.98
2019-05-23T17:45:14.216Z,20.05
2019-05-23T17:50:18.670Z,19.94
2019-05-23T17:55:24.469Z,19.96
2019-05-23T18:00:36.132Z,19.98
2019-05-23T18:05:42.302Z,19.96
2019-05-23T18:10:48.348Z,19.64
2019-05-23T18:15:55.580Z,19.36
2019-05-23T18:21:01.518Z,19.27
2019-05-23T18:26:07.829Z,19.39
2019-05-23T18:31:17.443Z,19.28
2019-05-23T18:36:23.172Z,19.06
2019-05-23T18:41:29.271Z,18.98
2019-05-23T18:46:39.829Z,18.72
2019-05-23T18:51:52.540Z,18.48
2019-05-23T18:56:59.884Z,18.36
2019-05-23T19:02:06.484Z,18.22
2019-05-23T19:07:12.946Z,17.87
2019-05-23T19:12:18.620Z,17.65
2019-05-23T19:17:24.195Z,17.27
2019-05-23T19:22:30.262Z,17.01
2019-05-23T19:27:35.704Z,16.77
2019-05-23T19:32:41.230Z,16.46
2019-05-23T19:37:47.344Z,16.20
2019-05-23T19:42:53.253Z,15.85
2019-05-23T19:47:58.517Z,15.80
2019-05-23T19:53:03.994Z,15.56
2019-05-23T19:58:11.072Z,15.37
2019-05-23T20:03:18.552Z,15.30
2019-05-23T20:08:24.024Z,15.14
2019-05-23T20:13:29.283Z,14.97
2019-05-23T20:18:34.448Z,14.85
2019-05-23T20:23:40.037Z,14.73
2019-05-23T20:28:45.460Z,14.61
2019-05-23T20:33:51.555Z,14.54
2019-05-23T20:38:57.625Z,14.43
2019-05-23T20:44:03.180Z,14.36
2019-05-23T20:49:08.389Z,14.28
2019-05-23T20:54:13.655Z,14.20
2019-05-23T20:59:19.202Z,14.13
2019-05-23T21:04:24.237Z,14.09
2019-05-23T21:09:30.503Z,13.97
2019-05-23T21:14:35.720Z,13.92
2019-05-23T21:19:40.930Z,13.91
2019-05-23T21:24:46.085Z,13.69
2019-05-23T21:29:51.585Z,13.51
2019-05-23T21:34:57.201Z,13.42
2019-05-23T21:40:02.751Z,13.27
2019-05-23T21:45:08.285Z,13.12
2019-05-23T21:50:13.740Z,13.01
2019-05-23T21:55:26.803Z,12.99
2019-05-23T22:01:11.854Z,13.00
2019-05-23T22:06:18.751Z,12.90
2019-05-23T22:11:24.147Z,12.86
2019-05-23T22:16:29.292Z,12.66
2019-05-23T22:21:34.734Z,12.63
2019-05-23T22:26:39.947Z,12.69
2019-05-23T22:31:45.305Z,12.67
2019-05-23T22:36:50.539Z,12.62
2019-05-23T22:41:55.759Z,12.64
2019-05-23T22:47:00.905Z,12.58
2019-05-23T22:52:06.397Z,12.57
2019-05-23T22:57:11.766Z,12.54
2019-05-23T23:02:18.154Z,12.53
2019-05-23T23:07:23.820Z,12.51
2019-05-23T23:12:29.075Z,12.47
2019-05-23T23:17:34.307Z,12.48
2019-05-23T23:22:40.209Z,12.45
2019-05-23T23:27:45.349Z,12.41
2019-05-23T23:32:50.603Z,12.40
2019-05-23T23:37:55.760Z,12.38
2019-05-23T23:43:01.226Z,12.35
2019-05-23T23:48:24.429Z,12.33
2019-05-23T23:53:47.365Z,12.27
2019-05-23T23:58:51.801Z,12.18
